N540DT LFMD-LFMD
Flight info
| Callsign | N540DT |
|---|---|
| Flight time | 0h 4m |
| Altitude | 5000 |
| Route | LOCAL VOLTIGE |
| Aircraft | L1P/L-VGD/A |
Departure
| Time | 2026-04-24 14:29 |
|---|---|
| Airport | Cannes Mandelieu Airport (LFMD) |
Arrival
| Time | 2026-04-24 14:34 |
|---|---|
| Airport | Cannes Mandelieu Airport (LFMD) |
| Time | Latitude | Longitude | Altitude | Speed | Heading |
|---|---|---|---|---|---|
| 2026-04-24 14:21 | 43.54653 | 6.95566 | 10 ft | 0 kts | 46° |
| 2026-04-24 14:26 | 43.54654 | 6.95566 | 10 ft | 0 kts | 46° |
| 2026-04-24 14:26 | 43.54662 | 6.95577 | 10 ft | 17 kts | 47° |
| 2026-04-24 14:27 | 43.54665 | 6.95604 | 10 ft | 0 kts | 191° |
| 2026-04-24 14:27 | 43.54621 | 6.95553 | 10 ft | 17 kts | 228° |
| 2026-04-24 14:27 | 43.54547 | 6.95452 | 10 ft | 13 kts | 222° |
| 2026-04-24 14:27 | 43.54498 | 6.95350 | 10 ft | 12 kts | 281° |
| 2026-04-24 14:28 | 43.54597 | 6.95289 | 10 ft | 20 kts | 352° |
| 2026-04-24 14:28 | 43.54752 | 6.95262 | 10 ft | 22 kts | 351° |
| 2026-04-24 14:28 | 43.54870 | 6.95243 | 10 ft | 16 kts | 353° |
| 2026-04-24 14:28 | 43.54989 | 6.95218 | 10 ft | 12 kts | 343° |
| 2026-04-24 14:29 | 43.55001 | 6.95126 | 9 ft | 12 kts | 262° |
| 2026-04-24 14:29 | 43.54967 | 6.95061 | 9 ft | 24 kts | 189° |
| 2026-04-24 14:29 | 43.54271 | 6.95161 | 196 ft | 139 kts | 177° |
| 2026-04-24 14:29 | 43.53252 | 6.95263 | 952 ft | 149 kts | 182° |
| 2026-04-24 14:30 | 43.52545 | 6.95250 | 1516 ft | 155 kts | 188° |
| 2026-04-24 14:30 | 43.51063 | 6.95525 | 1388 ft | 150 kts | 171° |
| 2026-04-24 14:30 | 43.50097 | 6.95912 | 1370 ft | 142 kts | 169° |
| 2026-04-24 14:30 | 43.49103 | 6.96214 | 1352 ft | 164 kts | 173° |
| 2026-04-24 14:31 | 43.48744 | 6.96450 | 2063 ft | 34 kts | 240° |
| 2026-04-24 14:31 | 43.48107 | 6.95851 | 1344 ft | 122 kts | 215° |
| 2026-04-24 14:31 | 43.47372 | 6.95274 | 867 ft | 123 kts | 214° |
| 2026-04-24 14:31 | 43.46621 | 6.94569 | 456 ft | 124 kts | 212° |
| 2026-04-24 14:32 | 43.45970 | 6.93943 | 302 ft | 109 kts | 214° |
| 2026-04-24 14:32 | 43.45397 | 6.93358 | 160 ft | 96 kts | 215° |
| 2026-04-24 14:32 | 43.44962 | 6.92767 | 24 ft | 72 kts | 208° |
| 2026-04-24 14:32 | 43.44489 | 6.92492 | 144 ft | 88 kts | 231° |
| 2026-04-24 14:33 | 43.44301 | 6.91884 | 17 ft | 69 kts | 255° |
| 2026-04-24 14:33 | 43.44151 | 6.90916 | 133 ft | 134 kts | 246° |
| 2026-04-24 14:33 | 43.43389 | 6.90130 | 235 ft | 163 kts | 198° |
| 2026-04-24 14:33 | 43.42289 | 6.89523 | 236 ft | 184 kts | 222° |
| 2026-04-24 14:34 | 43.41641 | 6.88927 | 461 ft | 88 kts | 202° |
| 2026-04-24 14:34 | 43.41326 | 6.88945 | -2 ft | 25 kts | 139° |
| 2026-04-24 14:34 | 43.41278 | 6.89253 | 0 ft | 0 kts | 112° |
| 2026-04-24 14:34 | 43.41270 | 6.89276 | 0 ft | 0 kts | 134° |
| 2026-04-24 14:35 | 43.41249 | 6.89296 | -2 ft | 16 kts | 131° |
| 2026-04-24 14:35 | 43.41243 | 6.89306 | 377 ft | 0 kts | 149° |